Hernani, Spain
Current Conditions -  °F | °C
As of 10:30 AM on Tuesday 21 Oct 2014 (Local Time) from LESO Reporting Station
Clear Clear  
Wind Chill: 18°   Ceiling: Unl
Heat Index: 18°   Visibility: 6mi
Dew Point: 16°   Wind: 1mph
Humidity: 88%   Direction: NA
Pressure: 30.24"   Gusts: NA
Location:  43.27°N, 1.98°W
Report Text: LESO 210830Z VRB01KT CAVOK 18/16 Q1024
Loading
Personal Weather Stations






























Interactive Weather Map
Tropical Storm Tracking
New forecast layout! Learn more

10-Day Weather Forecast

Advertisements
Track Severe Weather on mobile